Pillager, Minnesota
Current Conditions -  °F | °C
As of 8:33 PM on Thursday 20 Nov 2014 (Local Time) from KSAZ Reporting Station
Clear Clear  
Wind Chill: -2°   Ceiling: Unl
Heat Index: -2°   Visibility: 10mi
Dew Point: -8°   Wind: 0mph
Humidity: 78%   Direction: NA
Pressure: 30.15"   Gusts: NA
Location:  46.33°N, 94.47°W
Report Text: KSAZ 210233Z AUTO 00000KT 10SM CLR M19/M22 A3015 RMK AO2
Loading
Personal Weather Stations






























Interactive Weather Map New forecast layout! Learn more

10-Day Weather Forecast

Advertisements
Track Severe Weather on mobile